»·PEaware :: UAL727 KAUS-KDFW

UAL727 :: KAUS-KDFW

FLIGHT INFORMATION

Flight Status: Arrived
Operator:
United Airlines
More flights by this operator :: More flights under this callsign
Pilot: Anonymous 5323 (5323)
Aircraft: BOEING 727-100
(B721)
More flights by this aircraft type
Origin: KAUS Austin Bergstrom Intl
United States
Destination: KDFW Dallas-Ft Worth Intl
United States
More flights between these airports :: More routes between these airports
Route: ELOEL1 FORSS GUTZZ BOOVE3
File this flight plan on PilotEdge
Remarks:
Altitude:
(Current/Filed)
27,000ft
Speed:
(Current/Filed)
480kts
Departed: 15-Apr-16 04:52 PM
Arrived: 15-Apr-16 05:30 PM
Distance/Time
Traveled:
166nm/0:38
Distance/Time
To Go:
Arrived

Flight Plot

Page will automatically refresh every two minutes.


Map Options




Map Legend


Flown Route
Filed Route
Departure Airport
Arrival Airport
Navaid (VOR, NDB)
Fix

Horizontal Profiles

Position Reports

Time Latitude Longitude Heading Altitude Ground
Speed
15-Apr-16 16:12 30.202519 -97.663882 269 553ft 0kts
15-Apr-16 16:13 30.202519 -97.663882 269 553ft 0kts
15-Apr-16 16:14 30.202519 -97.663882 269 553ft 0kts
15-Apr-16 16:15 30.202519 -97.663882 269 553ft 0kts
15-Apr-16 16:16 30.202519 -97.663882 269 553ft 0kts
15-Apr-16 16:17 30.202519 -97.663882 269 553ft 0kts
15-Apr-16 16:18 30.202519 -97.663882 269 553ft 0kts
15-Apr-16 16:19 30.202519 -97.663882 269 553ft 0kts
15-Apr-16 16:20 30.202519 -97.663882 269 553ft 0kts
15-Apr-16 16:21 30.202519 -97.663882 269 553ft 0kts
15-Apr-16 16:22 30.202519 -97.663882 269 553ft 0kts
15-Apr-16 16:23 30.202519 -97.663882 269 553ft 0kts
15-Apr-16 16:24 30.202519 -97.663882 269 553ft 0kts
15-Apr-16 16:25 30.201507 -97.663844 178 553ft 6kts
15-Apr-16 16:26 30.199113 -97.664613 266 553ft 13kts
15-Apr-16 16:27 30.199025 -97.668138 268 553ft 12kts
15-Apr-16 16:28 30.198936 -97.672938 277 553ft 13kts
15-Apr-16 16:29 30.202331 -97.673394 359 553ft 19kts
15-Apr-16 16:30 30.208064 -97.673978 345 553ft 16kts
15-Apr-16 16:31 30.214059 -97.675278 24 553ft 22kts
15-Apr-16 16:32 30.215407 -97.676549 220 553ft 0kts
15-Apr-16 16:33 30.215407 -97.676549 220 553ft 0kts
15-Apr-16 16:34 30.215407 -97.676549 220 553ft 0kts
15-Apr-16 16:35 30.215407 -97.676549 220 553ft 0kts
15-Apr-16 16:36 30.215407 -97.676549 220 553ft 0kts
15-Apr-16 16:37 30.215407 -97.676549 220 553ft 0kts
15-Apr-16 16:38 30.215407 -97.676549 220 553ft 0kts
15-Apr-16 16:39 30.215407 -97.676549 220 553ft 0kts
15-Apr-16 16:40 30.215407 -97.676549 220 553ft 0kts
15-Apr-16 16:41 30.215407 -97.676549 220 553ft 0kts
15-Apr-16 16:42 30.214859 -97.677097 220 553ft 18kts
15-Apr-16 16:43 30.200752 -97.678895 175 567ft 148kts
15-Apr-16 16:44 30.169260 -97.721192 288 2736ft 260kts
15-Apr-16 16:45 30.234699 -97.744328 13 6205ft 287kts
15-Apr-16 16:46 30.313781 -97.726554 355 9601ft 297kts
15-Apr-16 16:47 30.396677 -97.745694 343 12268ft 321kts
15-Apr-16 16:48 30.487667 -97.775203 342 14370ft 356kts
15-Apr-16 16:49 30.583166 -97.806870 341 16979ft 365kts
15-Apr-16 16:50 30.682378 -97.839887 341 19231ft 377kts
15-Apr-16 16:51 30.766905 -97.869124 339 20903ft 386kts
15-Apr-16 16:52 30.888072 -97.914230 338 23036ft 398kts
15-Apr-16 16:53 30.971668 -97.959719 329 24481ft 403kts
15-Apr-16 16:54 31.072956 -98.019311 329 26129ft 413kts
15-Apr-16 16:55 31.177428 -98.081069 329 26906ft 440kts
15-Apr-16 16:56 31.293185 -98.146038 342 26892ft 487kts
15-Apr-16 16:57 31.433518 -98.135706 3 26911ft 521kts
15-Apr-16 16:58 31.579421 -98.113830 3 26923ft 539kts
15-Apr-16 16:59 31.721673 -98.054855 27 26923ft 559kts
15-Apr-16 17:00 31.856477 -97.962655 27 26917ft 555kts
15-Apr-16 17:01 31.971806 -97.886359 26 25811ft 455kts
15-Apr-16 17:02 32.080786 -97.814600 27 23483ft 442kts
15-Apr-16 17:03 32.186253 -97.744497 27 21357ft 427kts
15-Apr-16 17:04 32.281706 -97.684551 24 19413ft 413kts
15-Apr-16 17:05 32.379020 -97.626016 33 17481ft 401kts
15-Apr-16 17:06 32.459320 -97.537470 43 15507ft 388kts
15-Apr-16 17:07 32.535727 -97.450226 43 13655ft 375kts
15-Apr-16 17:08 32.609326 -97.365866 43 11842ft 364kts
15-Apr-16 17:09 32.681595 -97.282894 44 11010ft 373kts
15-Apr-16 17:10 32.757606 -97.195495 42 10996ft 383kts
15-Apr-16 17:11 32.858151 -97.167251 0 10996ft 379kts
15-Apr-16 17:12 32.952686 -97.165468 358 10321ft 308kts
15-Apr-16 17:13 33.036022 -97.166444 0 7909ft 298kts
15-Apr-16 17:14 33.114183 -97.156841 40 4702ft 270kts
15-Apr-16 17:15 33.129734 -97.079554 95 3029ft 226kts
15-Apr-16 17:16 33.099060 -97.030622 161 2983ft 183kts
15-Apr-16 17:17 33.047504 -97.029261 176 3016ft 189kts
15-Apr-16 17:18 33.006715 -97.029487 175 2420ft 133kts
15-Apr-16 17:19 32.969542 -97.029619 174 1696ft 133kts
15-Apr-16 17:20 32.933741 -97.030045 173 1010ft 129kts
15-Apr-16 17:21 32.904011 -97.029927 179 618ft 13kts
15-Apr-16 17:22 32.901135 -97.031293 269 618ft 16kts
15-Apr-16 17:23 32.900139 -97.035477 138 618ft 13kts
15-Apr-16 17:24 32.897001 -97.034284 190 618ft 21kts
15-Apr-16 17:25 32.898390 -97.030053 338 618ft 18kts
15-Apr-16 17:26 32.905084 -97.032114 349 618ft 26kts

Navigation Log

Ident Type
1. KAUS Airport
2. KDFW Airport